createdAt,value
2019-03-03T07:19:47.271Z,1004.46
2019-03-03T07:20:47.239Z,1004.39
2019-03-03T07:21:47.226Z,1004.44
2019-03-03T07:22:47.218Z,1004.42
2019-03-03T07:23:47.206Z,1004.41
2019-03-03T07:24:47.214Z,1004.40
2019-03-03T07:25:47.184Z,1004.43
2019-03-03T07:26:47.179Z,1004.40
2019-03-03T07:27:47.164Z,1004.45
2019-03-03T07:28:47.160Z,1004.46
2019-03-03T07:29:47.163Z,1004.47
2019-03-03T07:30:47.151Z,1004.47
2019-03-03T07:31:47.119Z,1004.38
2019-03-03T07:32:47.108Z,1004.46
2019-03-03T07:33:47.117Z,1004.41
2019-03-03T07:34:47.192Z,1004.48
2019-03-03T07:35:47.082Z,1004.44
2019-03-03T07:36:47.068Z,1004.42
2019-03-03T07:37:47.055Z,1004.53
2019-03-03T07:38:47.044Z,1004.59
2019-03-03T07:39:54.088Z,1004.46
2019-03-03T07:40:47.022Z,1004.49
2019-03-03T07:41:47.015Z,1004.48
2019-03-03T07:42:47.002Z,1004.55
2019-03-03T07:43:47.028Z,1004.45
2019-03-03T07:44:46.998Z,1004.48
2019-03-03T07:45:46.967Z,1004.54
2019-03-03T07:46:46.985Z,1004.50
2019-03-03T07:47:46.947Z,1004.54
2019-03-03T07:48:46.942Z,1004.49
2019-03-03T07:49:46.960Z,1004.48
2019-03-03T07:50:46.914Z,1004.58
2019-03-03T07:51:46.901Z,1004.58
2019-03-03T07:52:46.890Z,1004.54
2019-03-03T07:53:46.884Z,1004.55
2019-03-03T07:54:46.908Z,1004.52
2019-03-03T07:55:46.861Z,1004.46
2019-03-03T07:56:46.846Z,1004.57
2019-03-03T07:57:47.007Z,1004.49
2019-03-03T07:58:46.825Z,1004.44
2019-03-03T07:59:46.820Z,1004.44
2019-03-03T08:00:46.840Z,1004.42
2019-03-03T08:01:46.791Z,1004.47
2019-03-03T08:02:46.781Z,1004.42
2019-03-03T08:03:46.766Z,1004.41
2019-03-03T08:04:46.754Z,1004.40
2019-03-03T08:05:46.767Z,1004.46
2019-03-03T08:06:46.751Z,1004.44
2019-03-03T08:07:46.722Z,1004.42
2019-03-03T08:08:46.719Z,1004.48
2019-03-03T08:09:46.703Z,1004.44
2019-03-03T08:10:46.711Z,1004.45
2019-03-03T08:11:46.687Z,1004.42
2019-03-03T08:12:46.666Z,1004.50
2019-03-03T08:13:46.666Z,1004.48
2019-03-03T08:14:46.656Z,1004.55
2019-03-03T08:15:46.677Z,1004.51
2019-03-03T08:16:46.625Z,1004.53
2019-03-03T08:17:46.611Z,1004.54
2019-03-03T08:18:46.599Z,1004.55
2019-03-03T08:19:46.598Z,1004.50
2019-03-03T08:20:46.603Z,1004.46
2019-03-03T08:21:46.592Z,1004.56
2019-03-03T08:22:46.566Z,1004.53
2019-03-03T08:23:46.544Z,1004.53
2019-03-03T08:24:46.564Z,1004.55
2019-03-03T08:25:46.555Z,1004.52
2019-03-03T08:26:46.509Z,1004.57
2019-03-03T08:27:46.499Z,1004.53
2019-03-03T08:28:46.497Z,1004.44
2019-03-03T08:29:46.478Z,1004.56
2019-03-03T08:30:46.486Z,1004.62
2019-03-03T08:31:46.479Z,1004.54
2019-03-03T08:32:46.456Z,1004.51
2019-03-03T08:33:46.431Z,1004.48
2019-03-03T08:34:46.433Z,1004.46
2019-03-03T08:35:46.429Z,1004.39
2019-03-03T08:36:46.399Z,1004.44
2019-03-03T08:37:46.392Z,1004.39
2019-03-03T08:38:46.382Z,1004.48
2019-03-03T08:39:46.366Z,1004.43
2019-03-03T08:40:46.376Z,1004.42
2019-03-03T08:41:46.358Z,1004.46
2019-03-03T08:42:46.336Z,1004.45
2019-03-03T08:43:46.337Z,1004.42
2019-03-03T08:44:46.311Z,1004.44
2019-03-03T08:45:46.333Z,1004.41
2019-03-03T08:46:46.286Z,1004.47
2019-03-03T08:47:52.987Z,1004.51
2019-03-03T08:48:47.273Z,1004.43
2019-03-03T08:49:46.256Z,1004.42
2019-03-03T08:50:46.252Z,1004.42
2019-03-03T08:51:46.283Z,1004.43
2019-03-03T08:52:46.219Z,1004.44
2019-03-03T08:53:46.235Z,1004.41
2019-03-03T08:54:46.199Z,1004.48
2019-03-03T08:55:46.203Z,1004.48
2019-03-03T08:56:46.209Z,1004.38
2019-03-03T08:57:46.174Z,1004.33
2019-03-03T08:58:46.155Z,1004.35
2019-03-03T08:59:46.145Z,1004.45
2019-03-03T09:00:46.153Z,1004.43
2019-03-03T09:01:46.143Z,1004.39
2019-03-03T09:02:46.107Z,1004.45
2019-03-03T09:03:46.095Z,1004.35
2019-03-03T09:04:46.086Z,1004.35
2019-03-03T09:05:46.072Z,1004.42
2019-03-03T09:06:46.081Z,1004.43
2019-03-03T09:07:46.069Z,1004.35
2019-03-03T09:08:46.041Z,1004.38
2019-03-03T09:09:46.029Z,1004.39
2019-03-03T09:10:46.020Z,1004.39
2019-03-03T09:11:46.028Z,1004.33
2019-03-03T09:12:45.994Z,1004.33
2019-03-03T09:13:45.983Z,1004.29
2019-03-03T09:14:45.993Z,1004.33
2019-03-03T09:15:45.965Z,1004.31
2019-03-03T09:16:45.991Z,1004.31
2019-03-03T09:17:45.942Z,1004.40
2019-03-03T09:18:45.933Z,1004.32
2019-03-03T09:19:45.920Z,1004.33
2019-03-03T09:20:45.912Z,1004.32
2019-03-03T09:21:45.893Z,1004.26
2019-03-03T09:22:45.901Z,1004.34
2019-03-03T09:23:45.872Z,1004.26
2019-03-03T09:24:45.879Z,1004.32
2019-03-03T09:25:45.847Z,1004.30
2019-03-03T09:26:45.843Z,1004.25
2019-03-03T09:27:45.845Z,1004.31
2019-03-03T09:28:45.814Z,1004.29
2019-03-03T09:29:45.805Z,1004.32
2019-03-03T09:30:45.800Z,1004.18
2019-03-03T09:31:45.786Z,1004.28
2019-03-03T09:32:45.793Z,1004.26
2019-03-03T09:33:45.761Z,1004.22
2019-03-03T09:34:45.746Z,1004.21
2019-03-03T09:35:45.733Z,1004.29
2019-03-03T09:36:45.736Z,1004.27
2019-03-03T09:37:45.738Z,1004.24
2019-03-03T09:38:45.701Z,1004.23
2019-03-03T09:39:45.693Z,1004.21
2019-03-03T09:40:45.682Z,1004.27
2019-03-03T09:41:45.670Z,1004.34
2019-03-03T09:42:45.702Z,1004.31
2019-03-03T09:43:45.653Z,1004.27
2019-03-03T09:44:45.631Z,1004.19
2019-03-03T09:45:45.620Z,1004.26
2019-03-03T09:46:45.613Z,1004.26
2019-03-03T09:47:45.621Z,1004.25
2019-03-03T09:48:45.586Z,1004.28
2019-03-03T09:49:45.582Z,1004.25
2019-03-03T09:50:45.562Z,1004.22
2019-03-03T09:51:45.556Z,1004.25
2019-03-03T09:52:45.561Z,1004.17
2019-03-03T09:53:45.531Z,1004.25
2019-03-03T09:54:45.519Z,1004.21
2019-03-03T09:55:45.513Z,1004.26
2019-03-03T09:56:45.502Z,1004.18
2019-03-03T09:57:45.507Z,1004.19
2019-03-03T09:58:45.478Z,1004.19
2019-03-03T09:59:45.462Z,1004.25
2019-03-03T10:00:45.461Z,1004.16
2019-03-03T10:01:45.442Z,1004.17
2019-03-03T10:02:45.450Z,1004.23
2019-03-03T10:03:45.428Z,1004.16
2019-03-03T10:04:45.408Z,1004.15
2019-03-03T10:05:45.409Z,1004.12
2019-03-03T10:06:45.383Z,1004.11
2019-03-03T10:07:45.418Z,1004.18
2019-03-03T10:08:45.358Z,1004.25
2019-03-03T10:09:45.349Z,1004.11
2019-03-03T10:10:45.339Z,1004.18
2019-03-03T10:11:45.327Z,1004.16
2019-03-03T10:12:45.355Z,1004.21
2019-03-03T10:13:45.312Z,1004.20
2019-03-03T10:14:45.294Z,1004.10
2019-03-03T10:15:45.281Z,1004.13
2019-03-03T10:16:45.283Z,1004.28
2019-03-03T10:17:45.291Z,1004.12
2019-03-03T10:18:45.257Z,1004.09
2019-03-03T10:19:45.242Z,1004.09
2019-03-03T10:20:45.226Z,1004.12
2019-03-03T10:21:45.217Z,1004.13
2019-03-03T10:22:45.259Z,1004.08
2019-03-03T10:23:45.199Z,1004.03
2019-03-03T10:24:45.182Z,1004.09
2019-03-03T10:25:45.175Z,1004.17
2019-03-03T10:26:45.154Z,1004.16
2019-03-03T10:27:45.171Z,1004.08
2019-03-03T10:28:45.133Z,1004.11
2019-03-03T10:29:45.122Z,1004.09
2019-03-03T10:30:45.113Z,1004.10
2019-03-03T10:31:45.097Z,1004.12
2019-03-03T10:32:45.109Z,1004.12
2019-03-03T10:33:45.084Z,1004.14
2019-03-03T10:34:45.066Z,1004.08
2019-03-03T10:35:45.055Z,1004.10
2019-03-03T10:36:45.042Z,1004.13
2019-03-03T10:37:45.053Z,1004.05
2019-03-03T10:38:45.021Z,1004.07
2019-03-03T10:39:45.008Z,1004.10
2019-03-03T10:40:45.002Z,1004.10
2019-03-03T10:41:44.987Z,1004.05
2019-03-03T10:42:45.037Z,1004.07
2019-03-03T10:43:44.963Z,1004.15
2019-03-03T10:44:44.952Z,1004.09
2019-03-03T10:45:44.944Z,1004.06
2019-03-03T10:46:44.930Z,1004.02
2019-03-03T10:47:44.926Z,1004.01
2019-03-03T10:48:44.933Z,1004.00
2019-03-03T10:49:44.900Z,1003.98
2019-03-03T10:50:44.884Z,1004.03
2019-03-03T10:51:44.872Z,1003.96
2019-03-03T10:52:44.859Z,1004.03
2019-03-03T10:53:44.869Z,1003.97
2019-03-03T10:54:44.842Z,1004.01
2019-03-03T10:55:44.830Z,1004.02
2019-03-03T10:56:44.841Z,1004.01
2019-03-03T10:57:44.829Z,1004.05
2019-03-03T10:58:44.813Z,1004.00
2019-03-03T10:59:44.792Z,1003.95
2019-03-03T11:00:44.769Z,1003.98
2019-03-03T11:01:44.760Z,1004.00
2019-03-03T11:02:44.754Z,1004.00
2019-03-03T11:03:44.761Z,1003.99
2019-03-03T11:04:44.725Z,1003.95
2019-03-03T11:05:44.717Z,1003.92
2019-03-03T11:06:44.701Z,1003.98
2019-03-03T11:07:44.699Z,1004.10
2019-03-03T11:08:44.708Z,1003.97
2019-03-03T11:09:44.667Z,1004.04
2019-03-03T11:10:44.655Z,1004.06
2019-03-03T11:11:44.645Z,1003.98
2019-03-03T11:12:44.633Z,1004.00
2019-03-03T11:13:44.717Z,1004.04
2019-03-03T11:14:44.622Z,1004.04
2019-03-03T11:15:44.609Z,1004.02
2019-03-03T11:16:44.587Z,1003.99
2019-03-03T11:17:44.581Z,1004.05
2019-03-03T11:18:44.612Z,1003.91
2019-03-03T11:19:44.560Z,1003.98
2019-03-03T11:20:44.551Z,1003.89
2019-03-03T11:21:44.536Z,1003.90
2019-03-03T11:22:44.523Z,1003.89
2019-03-03T11:23:44.529Z,1003.87
2019-03-03T11:24:44.497Z,1003.86
2019-03-03T11:25:44.492Z,1003.88
2019-03-03T11:26:44.489Z,1003.89
2019-03-03T11:27:44.466Z,1003.74
2019-03-03T11:28:44.518Z,1003.79
2019-03-03T11:29:44.443Z,1003.81
2019-03-03T11:30:44.428Z,1003.82
2019-03-03T11:31:44.422Z,1003.81
2019-03-03T11:32:44.407Z,1003.78
2019-03-03T11:33:44.413Z,1003.70
2019-03-03T11:34:44.386Z,1003.70
2019-03-03T11:35:44.380Z,1003.70
2019-03-03T11:36:44.361Z,1003.67
2019-03-03T11:37:44.352Z,1003.67
2019-03-03T11:38:44.358Z,1003.64
2019-03-03T11:39:44.326Z,1003.58
2019-03-03T11:40:44.320Z,1003.67
2019-03-03T11:41:44.307Z,1003.62
2019-03-03T11:42:44.296Z,1003.61
2019-03-03T11:43:44.309Z,1003.60
2019-03-03T11:44:44.272Z,1003.65
2019-03-03T11:45:44.261Z,1003.52
2019-03-03T11:46:44.254Z,1003.52
2019-03-03T11:47:44.238Z,1003.48
2019-03-03T11:48:44.253Z,1003.52
2019-03-03T11:49:44.223Z,1003.53
2019-03-03T11:50:44.213Z,1003.53
2019-03-03T11:51:44.195Z,1003.46
2019-03-03T11:52:44.183Z,1003.54
2019-03-03T11:53:44.201Z,1003.52
2019-03-03T11:54:44.171Z,1003.44
2019-03-03T11:55:44.155Z,1003.48
2019-03-03T11:56:44.137Z,1003.49
2019-03-03T11:57:46.105Z,1003.36
2019-03-03T11:58:44.173Z,1003.45
2019-03-03T11:59:44.923Z,1003.41
2019-03-03T12:00:44.097Z,1003.42
2019-03-03T12:01:44.080Z,1003.40
2019-03-03T12:02:53.602Z,1003.39
2019-03-03T12:03:45.086Z,1003.32
2019-03-03T12:04:44.045Z,1003.35
2019-03-03T12:05:44.061Z,1003.31
2019-03-03T12:06:44.037Z,1003.28
2019-03-03T12:07:44.564Z,1003.28
2019-03-03T12:08:44.037Z,1003.34
2019-03-03T12:09:43.991Z,1003.29
2019-03-03T12:10:43.979Z,1003.33
2019-03-03T12:11:43.967Z,1003.30
2019-03-03T12:12:43.974Z,1003.25
2019-03-03T12:13:43.944Z,1003.25
2019-03-03T12:14:43.937Z,1003.23
2019-03-03T12:15:43.942Z,1003.26
2019-03-03T12:16:43.910Z,1003.32
2019-03-03T12:17:43.903Z,1003.25
2019-03-03T12:18:43.903Z,1003.23
2019-03-03T12:19:43.910Z,1003.14
2019-03-03T12:20:43.871Z,1003.17
2019-03-03T12:21:43.866Z,1003.19
2019-03-03T12:22:43.844Z,1003.23
2019-03-03T12:23:43.866Z,1003.15
2019-03-03T12:24:43.846Z,1003.14
2019-03-03T12:25:43.824Z,1003.24
2019-03-03T12:26:43.800Z,1003.05
2019-03-03T12:27:43.788Z,1003.18
2019-03-03T12:28:43.780Z,1003.14
2019-03-03T12:29:43.788Z,1003.21
2019-03-03T12:30:43.755Z,1003.14
2019-03-03T12:31:43.747Z,1003.13
2019-03-03T12:32:43.739Z,1003.14
2019-03-03T12:33:43.723Z,1003.09
2019-03-03T12:34:43.731Z,1003.05
2019-03-03T12:35:43.703Z,1003.05
2019-03-03T12:36:43.694Z,1002.98
2019-03-03T12:37:43.684Z,1003.04
2019-03-03T12:38:43.681Z,1003.09
2019-03-03T12:39:43.681Z,1003.03
2019-03-03T12:40:43.645Z,1003.00
2019-03-03T12:41:43.635Z,1003.03
2019-03-03T12:42:43.624Z,1003.08
2019-03-03T12:43:43.619Z,1003.12
2019-03-03T12:44:43.628Z,1003.08
2019-03-03T12:45:43.592Z,1002.98
2019-03-03T12:46:43.591Z,1003.00
2019-03-03T12:47:43.582Z,1003.11
2019-03-03T12:48:43.558Z,1003.09
2019-03-03T12:49:43.586Z,1003.06
2019-03-03T12:50:43.535Z,1003.04
2019-03-03T12:51:43.529Z,1003.10
2019-03-03T12:52:43.516Z,1003.02
2019-03-03T12:53:43.508Z,1003.06
2019-03-03T12:54:43.530Z,1003.06
2019-03-03T12:55:43.478Z,1002.99
2019-03-03T12:56:43.475Z,1003.01
2019-03-03T12:57:43.456Z,1003.02
2019-03-03T12:58:43.454Z,1002.98
2019-03-03T12:59:43.458Z,1002.91
2019-03-03T13:00:43.432Z,1002.85
2019-03-03T13:01:43.420Z,1002.93
2019-03-03T13:02:43.430Z,1002.93
2019-03-03T13:03:43.391Z,1002.84
2019-03-03T13:04:43.403Z,1002.91
2019-03-03T13:05:43.371Z,1002.81
2019-03-03T13:06:43.359Z,1002.79
2019-03-03T13:07:43.363Z,1002.82
2019-03-03T13:08:43.336Z,1002.78
2019-03-03T13:09:43.346Z,1002.93
2019-03-03T13:10:43.315Z,1002.79
2019-03-03T13:11:43.303Z,1002.77
2019-03-03T13:12:43.292Z,1002.81
2019-03-03T13:13:43.297Z,1002.79
2019-03-03T13:14:43.329Z,1002.62
2019-03-03T13:15:43.257Z,1002.68
2019-03-03T13:16:43.253Z,1002.82
2019-03-03T13:17:48.151Z,1002.55
2019-03-03T13:18:44.244Z,1002.71
2019-03-03T13:19:43.225Z,1002.68
2019-03-03T13:20:43.222Z,1002.57
2019-03-03T13:21:43.195Z,1002.50
2019-03-03T13:22:43.186Z,1002.62
2019-03-03T13:23:43.181Z,1002.50
2019-03-03T13:24:43.164Z,1002.57
2019-03-03T13:25:43.168Z,1002.46
2019-03-03T13:26:43.146Z,1002.45
2019-03-03T13:27:43.126Z,1002.31
2019-03-03T13:28:43.116Z,1002.35
2019-03-03T13:29:43.103Z,1002.34
2019-03-03T13:30:43.114Z,1002.28
2019-03-03T13:31:43.083Z,1002.39
2019-03-03T13:32:43.082Z,1002.36
2019-03-03T13:33:43.060Z,1002.33
2019-03-03T13:34:43.046Z,1002.45
2019-03-03T13:35:43.055Z,1002.34
2019-03-03T13:36:43.036Z,1002.34
2019-03-03T13:37:43.020Z,1002.47
2019-03-03T13:38:43.005Z,1002.36
2019-03-03T13:39:42.997Z,1002.58
2019-03-03T13:40:43.003Z,1002.42
2019-03-03T13:41:42.971Z,1002.35
2019-03-03T13:42:42.971Z,1002.40
2019-03-03T13:43:42.963Z,1002.42
2019-03-03T13:44:42.934Z,1002.52
2019-03-03T13:45:42.949Z,1002.43
2019-03-03T13:46:42.915Z,1002.40
2019-03-03T13:47:42.908Z,1002.37
2019-03-03T13:48:42.908Z,1002.29
2019-03-03T13:49:42.900Z,1002.27
2019-03-03T13:50:42.898Z,1002.35
2019-03-03T13:51:42.863Z,1002.31
2019-03-03T13:52:42.853Z,1002.33
2019-03-03T13:53:42.836Z,1002.30
2019-03-03T13:54:42.827Z,1002.42
2019-03-03T13:55:42.850Z,1002.33
2019-03-03T13:56:42.809Z,1002.35
2019-03-03T13:57:42.799Z,1002.37
2019-03-03T13:58:42.788Z,1002.30
2019-03-03T13:59:42.775Z,1002.20
2019-03-03T14:00:42.808Z,1002.30
2019-03-03T14:01:43.477Z,1002.22
2019-03-03T14:02:42.746Z,1002.23
2019-03-03T14:03:42.778Z,1002.15
2019-03-03T14:04:42.720Z,1002.26
2019-03-03T14:05:42.794Z,1002.10
2019-03-03T14:06:42.699Z,1002.23
2019-03-03T14:07:42.681Z,1002.17
2019-03-03T14:08:42.668Z,1002.14
2019-03-03T14:09:42.669Z,1002.19
2019-03-03T14:10:42.666Z,1002.20
2019-03-03T14:11:42.634Z,1002.20
2019-03-03T14:12:42.627Z,1002.12
2019-03-03T14:13:42.637Z,1002.17
2019-03-03T14:14:42.609Z,1002.10
2019-03-03T14:15:42.614Z,1002.07
2019-03-03T14:16:42.585Z,1002.08
2019-03-03T14:17:42.573Z,1002.11
2019-03-03T14:18:42.575Z,1002.17
2019-03-03T14:19:42.550Z,1002.01
2019-03-03T14:20:42.569Z,1002.05
2019-03-03T14:21:42.525Z,1002.13
2019-03-03T14:22:42.515Z,1002.00
2019-03-03T14:23:42.505Z,1002.12
2019-03-03T14:24:42.507Z,1002.07
2019-03-03T14:25:42.515Z,1002.20
2019-03-03T14:26:42.485Z,1002.05
2019-03-03T14:27:42.457Z,1001.75
2019-03-03T14:28:42.452Z,1001.97
2019-03-03T14:29:42.435Z,1001.94
2019-03-03T14:30:42.449Z,1001.91
2019-03-03T14:31:42.425Z,1001.96
2019-03-03T14:32:42.414Z,1001.99
2019-03-03T14:33:42.398Z,1001.98
2019-03-03T14:34:42.383Z,1001.91
2019-03-03T14:35:42.393Z,1001.98
2019-03-03T14:36:42.356Z,1001.90
2019-03-03T14:37:42.346Z,1001.95
2019-03-03T14:38:42.336Z,1001.87
2019-03-03T14:39:42.334Z,1001.91
2019-03-03T14:40:42.340Z,1001.91
2019-03-03T14:41:42.301Z,1001.90
2019-03-03T14:42:42.289Z,1001.95
2019-03-03T14:43:42.283Z,1001.89
2019-03-03T14:44:42.267Z,1001.82
2019-03-03T14:45:42.336Z,1001.92
2019-03-03T14:46:42.246Z,1001.81
2019-03-03T14:47:42.248Z,1001.83
2019-03-03T14:48:42.234Z,1001.78
2019-03-03T14:49:42.221Z,1001.82
2019-03-03T14:50:42.207Z,1001.79
2019-03-03T14:51:42.242Z,1001.74
2019-03-03T14:52:42.178Z,1001.75
2019-03-03T14:53:42.174Z,1001.72
2019-03-03T14:54:42.163Z,1001.70
2019-03-03T14:55:42.150Z,1001.67
2019-03-03T14:56:42.840Z,1001.66
2019-03-03T14:57:42.120Z,1001.60
2019-03-03T14:58:42.115Z,1001.64
2019-03-03T14:59:42.120Z,1001.53
2019-03-03T15:00:42.103Z,1001.55
2019-03-03T15:01:42.106Z,1001.58
2019-03-03T15:02:42.068Z,1001.62
2019-03-03T15:03:42.057Z,1001.57
2019-03-03T15:04:42.050Z,1001.64
2019-03-03T15:05:42.048Z,1001.62
2019-03-03T15:06:42.039Z,1001.60
2019-03-03T15:07:42.025Z,1001.58
2019-03-03T15:08:41.999Z,1001.61
2019-03-03T15:09:41.988Z,1001.62
2019-03-03T15:10:41.987Z,1001.53
2019-03-03T15:11:41.993Z,1001.52
2019-03-03T15:12:41.953Z,1001.56
2019-03-03T15:13:41.942Z,1001.52
2019-03-03T15:14:41.931Z,1001.56
2019-03-03T15:15:41.922Z,1001.69
2019-03-03T15:16:41.948Z,1001.57
2019-03-03T15:17:41.899Z,1001.60
2019-03-03T15:18:41.891Z,1001.56
2019-03-03T15:19:41.876Z,1001.50
2019-03-03T15:20:41.874Z,1001.51
2019-03-03T15:21:41.874Z,1001.51
2019-03-03T15:22:41.846Z,1001.59
2019-03-03T15:23:41.856Z,1001.52
2019-03-03T15:24:41.818Z,1001.44
2019-03-03T15:25:41.811Z,1001.35
2019-03-03T15:26:41.819Z,1001.35
2019-03-03T15:27:41.810Z,1001.35
2019-03-03T15:28:41.786Z,1001.24
2019-03-03T15:29:41.761Z,1001.33
2019-03-03T15:30:41.754Z,1001.24
2019-03-03T15:31:41.758Z,1001.24
2019-03-03T15:32:41.727Z,1001.26
2019-03-03T15:33:41.718Z,1001.09
2019-03-03T15:34:41.707Z,1001.13
2019-03-03T15:35:41.702Z,1001.03
2019-03-03T15:36:41.706Z,1001.08
2019-03-03T15:37:41.691Z,1001.00
2019-03-03T15:38:41.674Z,1001.03
2019-03-03T15:39:41.650Z,1000.98
2019-03-03T15:40:41.641Z,1000.93
2019-03-03T15:41:41.665Z,1000.99
2019-03-03T15:42:41.622Z,1000.94
2019-03-03T15:43:41.607Z,1000.98
2019-03-03T15:44:41.612Z,1000.94
2019-03-03T15:45:41.594Z,1000.88
2019-03-03T15:46:41.575Z,1000.94
2019-03-03T15:47:41.589Z,1000.83
2019-03-03T15:48:41.554Z,1000.85
2019-03-03T15:49:41.539Z,1000.85
2019-03-03T15:50:41.527Z,1000.85
2019-03-03T15:51:41.531Z,1000.80
2019-03-03T15:52:41.531Z,1000.82
2019-03-03T15:53:41.556Z,1000.80
2019-03-03T15:54:41.488Z,1000.76
2019-03-03T15:55:41.533Z,1000.70
2019-03-03T15:56:41.460Z,1000.74
2019-03-03T15:57:41.475Z,1000.67
2019-03-03T15:58:41.449Z,1000.70
2019-03-03T15:59:41.445Z,1000.71
2019-03-03T16:00:41.417Z,1000.69
2019-03-03T16:01:41.416Z,1000.67
2019-03-03T16:02:41.417Z,1000.63
2019-03-03T16:03:41.380Z,1000.61
2019-03-03T16:04:41.383Z,1000.65
2019-03-03T16:05:41.359Z,1000.68
2019-03-03T16:06:41.347Z,1000.64
2019-03-03T16:07:41.357Z,1000.63
2019-03-03T16:08:41.334Z,1000.60
2019-03-03T16:09:41.327Z,1000.59
2019-03-03T16:10:41.307Z,1000.58
2019-03-03T16:11:41.292Z,1000.58
2019-03-03T16:12:41.301Z,1000.56
2019-03-03T16:13:41.279Z,1000.56
2019-03-03T16:14:41.258Z,1000.55
2019-03-03T16:15:41.249Z,1000.49
2019-03-03T16:16:41.250Z,1000.48
2019-03-03T16:17:41.257Z,1000.46
2019-03-03T16:18:41.214Z,1000.48
2019-03-03T16:19:41.201Z,1000.47
2019-03-03T16:20:41.196Z,1000.41
2019-03-03T16:21:41.179Z,1000.47
2019-03-03T16:22:41.187Z,1000.38
2019-03-03T16:23:41.158Z,1000.33
2019-03-03T16:24:41.150Z,1000.31
2019-03-03T16:25:41.134Z,1000.38
2019-03-03T16:26:41.135Z,1000.32
2019-03-03T16:27:41.137Z,1000.31
2019-03-03T16:28:41.100Z,1000.26
2019-03-03T16:29:41.089Z,1000.29
2019-03-03T16:30:41.085Z,1000.27
2019-03-03T16:31:41.066Z,1000.30
2019-03-03T16:32:41.076Z,1000.22
2019-03-03T16:33:41.052Z,1000.30
2019-03-03T16:34:41.034Z,1000.19
2019-03-03T16:35:41.024Z,1000.12
2019-03-03T16:36:41.015Z,1000.15
2019-03-03T16:37:41.034Z,1000.15
2019-03-03T16:38:40.989Z,1000.08
2019-03-03T16:39:40.982Z,1000.01
2019-03-03T16:40:40.965Z,1000.05
2019-03-03T16:41:40.953Z,1000.01
2019-03-03T16:42:40.961Z,1000.02
2019-03-03T16:43:40.935Z,1000.01
2019-03-03T16:44:40.925Z,999.98
2019-03-03T16:45:40.908Z,999.94
2019-03-03T16:46:40.901Z,999.98
2019-03-03T16:47:40.946Z,999.97
2019-03-03T16:48:40.874Z,999.98
2019-03-03T16:49:40.864Z,999.96
2019-03-03T16:50:40.856Z,999.96
2019-03-03T16:51:40.840Z,999.98
2019-03-03T16:52:40.843Z,999.99
2019-03-03T16:53:40.842Z,999.95
2019-03-03T16:54:40.804Z,999.95
2019-03-03T16:55:40.795Z,999.92
2019-03-03T16:56:40.794Z,1000.00
2019-03-03T16:57:40.771Z,999.88
2019-03-03T16:58:40.785Z,999.95
2019-03-03T16:59:40.754Z,999.91
2019-03-03T17:00:40.741Z,999.95
2019-03-03T17:01:40.735Z,999.91
2019-03-03T17:02:40.715Z,999.97
2019-03-03T17:03:40.727Z,999.92
2019-03-03T17:04:40.712Z,999.92
2019-03-03T17:05:40.693Z,999.87
2019-03-03T17:06:40.672Z,999.92
2019-03-03T17:07:40.658Z,999.90
2019-03-03T17:08:40.685Z,999.94
2019-03-03T17:09:40.633Z,999.83
2019-03-03T17:10:40.622Z,999.88
2019-03-03T17:11:40.625Z,999.94
2019-03-03T17:12:40.605Z,999.85
2019-03-03T17:13:40.620Z,999.81
2019-03-03T17:14:40.576Z,999.81
2019-03-03T17:15:40.571Z,999.87
2019-03-03T17:16:40.568Z,999.75
2019-03-03T17:17:40.547Z,999.74
2019-03-03T17:18:40.566Z,999.74
2019-03-03T17:19:40.530Z,999.78
2019-03-03T17:20:40.510Z,999.74
2019-03-03T17:21:40.507Z,999.77
2019-03-03T17:22:40.494Z,999.75
2019-03-03T17:23:40.495Z,999.71
2019-03-03T17:24:40.467Z,999.72
2019-03-03T17:25:40.456Z,999.62
2019-03-03T17:26:40.441Z,999.65
2019-03-03T17:27:40.440Z,999.63
2019-03-03T17:28:40.438Z,999.56
2019-03-03T17:29:40.409Z,999.58
2019-03-03T17:30:40.397Z,999.54
2019-03-03T17:31:40.385Z,999.59
2019-03-03T17:32:40.375Z,999.61
2019-03-03T17:33:40.386Z,999.57
2019-03-03T17:34:40.351Z,999.58
2019-03-03T17:35:40.340Z,999.60
2019-03-03T17:36:40.329Z,999.55
2019-03-03T17:37:40.316Z,999.61
2019-03-03T17:38:40.327Z,999.51
2019-03-03T17:39:40.297Z,999.48
2019-03-03T17:40:40.284Z,999.49
2019-03-03T17:41:40.277Z,999.44
2019-03-03T17:42:40.263Z,999.39
2019-03-03T17:43:40.278Z,999.49
2019-03-03T17:44:40.239Z,999.41
2019-03-03T17:45:40.240Z,999.47
2019-03-03T17:46:40.218Z,999.44
2019-03-03T17:47:40.203Z,999.44
2019-03-03T17:48:40.224Z,999.39
2019-03-03T17:49:40.183Z,999.48
2019-03-03T17:50:40.173Z,999.41
2019-03-03T17:51:40.167Z,999.45
2019-03-03T17:52:40.153Z,999.40
2019-03-03T17:53:40.165Z,999.44
2019-03-03T17:54:40.125Z,999.38
2019-03-03T17:55:40.116Z,999.37
2019-03-03T17:56:40.107Z,999.35
2019-03-03T17:57:40.104Z,999.30
2019-03-03T17:58:40.110Z,999.35
2019-03-03T17:59:40.069Z,999.27
2019-03-03T18:00:40.056Z,999.35
2019-03-03T18:01:40.045Z,999.33
2019-03-03T18:02:40.041Z,999.35
2019-03-03T18:03:40.024Z,999.30
2019-03-03T18:04:40.050Z,999.36
2019-03-03T18:05:40.010Z,999.28
2019-03-03T18:06:39.988Z,999.31
2019-03-03T18:07:40.067Z,999.28
2019-03-03T18:08:39.966Z,999.23
2019-03-03T18:09:39.981Z,999.18
2019-03-03T18:10:39.966Z,999.26
2019-03-03T18:11:39.982Z,999.32
2019-03-03T18:12:39.921Z,999.26
2019-03-03T18:13:39.928Z,999.32
2019-03-03T18:14:39.919Z,999.23
2019-03-03T18:15:39.907Z,999.16
2019-03-03T18:16:39.874Z,999.36
2019-03-03T18:17:39.864Z,999.30
2019-03-03T18:18:39.855Z,999.25
2019-03-03T18:19:39.867Z,999.28
2019-03-03T18:20:39.836Z,999.24
2019-03-03T18:21:39.828Z,999.33
2019-03-03T18:22:39.813Z,999.27
2019-03-03T18:23:39.796Z,999.23
2019-03-03T18:24:39.808Z,999.18
2019-03-03T18:25:39.777Z,999.15
2019-03-03T18:26:39.767Z,999.22
2019-03-03T18:27:39.761Z,999.15
2019-03-03T18:28:39.749Z,999.16
2019-03-03T18:29:39.756Z,999.07
2019-03-03T18:30:39.716Z,999.03
2019-03-03T18:31:39.708Z,999.05
2019-03-03T18:32:39.701Z,999.16
2019-03-03T18:33:39.702Z,999.05
2019-03-03T18:34:39.701Z,999.07
2019-03-03T18:35:39.667Z,999.04
2019-03-03T18:36:39.649Z,999.03
2019-03-03T18:37:39.639Z,999.06
2019-03-03T18:38:39.651Z,998.98
2019-03-03T18:39:39.651Z,998.96
2019-03-03T18:40:39.603Z,998.91
2019-03-03T18:41:39.592Z,999.02
2019-03-03T18:42:39.585Z,998.91
2019-03-03T18:43:39.570Z,998.86
2019-03-03T18:44:39.579Z,998.86
2019-03-03T18:45:39.565Z,998.84
2019-03-03T18:46:39.536Z,998.84
2019-03-03T18:47:39.524Z,998.81
2019-03-03T18:48:39.514Z,998.80
2019-03-03T18:49:39.527Z,998.77
2019-03-03T18:50:39.494Z,998.90
2019-03-03T18:51:39.502Z,998.76
2019-03-03T18:52:39.472Z,998.72
2019-03-03T18:53:39.461Z,998.69
2019-03-03T18:54:39.446Z,998.70
2019-03-03T18:55:39.453Z,998.66
2019-03-03T18:56:39.439Z,998.72
2019-03-03T18:57:39.416Z,998.65
2019-03-03T18:58:39.405Z,998.61
2019-03-03T18:59:39.391Z,998.63
2019-03-03T19:00:39.406Z,998.54
2019-03-03T19:01:39.379Z,998.67
2019-03-03T19:02:39.357Z,998.53
2019-03-03T19:03:39.344Z,998.42
2019-03-03T19:04:39.333Z,998.48
2019-03-03T19:05:39.340Z,998.45
2019-03-03T19:06:39.324Z,998.47
2019-03-03T19:07:39.323Z,998.56
2019-03-03T19:08:39.290Z,998.49
2019-03-03T19:09:39.276Z,998.37
2019-03-03T19:10:39.283Z,998.37
2019-03-03T19:11:39.258Z,998.38
2019-03-03T19:12:39.257Z,998.50
2019-03-03T19:13:39.234Z,998.36
2019-03-03T19:14:39.221Z,998.36
2019-03-03T19:15:39.259Z,998.45
2019-03-03T19:16:39.210Z,998.43
2019-03-03T19:17:39.194Z,998.36
2019-03-03T19:18:39.197Z,998.38
2019-03-03T19:19:39.168Z,998.37
2019-03-03T19:20:39.176Z,998.43
2019-03-03T19:21:39.142Z,998.42
2019-03-03T19:22:39.132Z,998.43
2019-03-03T19:23:39.121Z,998.29
2019-03-03T19:24:39.121Z,998.28
2019-03-03T19:25:39.116Z,998.26
2019-03-03T19:26:39.084Z,998.19
2019-03-03T19:27:40.817Z,998.20
2019-03-03T19:28:39.062Z,998.19
2019-03-03T19:29:39.052Z,998.26